createdAt,value
2017-07-12T00:00:33.025Z,70.4
2017-07-12T00:01:33.744Z,70.3
2017-07-12T00:02:34.617Z,71.3
2017-07-12T00:03:35.318Z,70.5
2017-07-12T00:04:36.063Z,71.3
2017-07-12T00:05:36.776Z,70.4
2017-07-12T00:06:37.486Z,70.2
2017-07-12T00:07:38.225Z,70.1
2017-07-12T00:08:40.437Z,68.8
2017-07-12T00:09:41.162Z,70.3
2017-07-12T00:10:41.928Z,69.7
2017-07-12T00:11:42.660Z,69.7
2017-07-12T00:12:43.373Z,70.0
2017-07-12T00:13:44.104Z,69.7
2017-07-12T00:14:45.149Z,69.5
2017-07-12T00:15:45.929Z,69.6
2017-07-12T00:16:46.673Z,68.7
2017-07-12T00:17:47.406Z,69.8
2017-07-12T00:18:50.100Z,69.7
2017-07-12T00:19:50.806Z,69.3
2017-07-12T00:20:51.623Z,69.6
2017-07-12T00:21:52.412Z,69.7
2017-07-12T00:22:53.197Z,69.7
2017-07-12T00:23:54.158Z,69.6
2017-07-12T00:24:54.910Z,68.4
2017-07-12T00:25:55.643Z,68.3
2017-07-12T00:26:57.457Z,67.8
2017-07-12T00:27:58.294Z,67.9
2017-07-12T00:28:58.946Z,67.6
2017-07-12T00:29:59.781Z,67.8
2017-07-12T00:31:00.520Z,67.9
2017-07-12T00:32:01.757Z,68.5
2017-07-12T00:33:02.837Z,68.5
2017-07-12T00:34:04.635Z,67.5
2017-07-12T00:35:05.413Z,67.5
2017-07-12T00:36:06.441Z,68.5
2017-07-12T00:37:07.453Z,69.0
2017-07-12T00:38:08.191Z,68.1
2017-07-12T00:39:08.935Z,68.3
2017-07-12T00:40:09.702Z,67.7
2017-07-12T00:41:10.739Z,68.5
2017-07-12T00:42:11.582Z,67.2
2017-07-12T00:43:12.304Z,67.5
2017-07-12T00:44:13.003Z,67.8
2017-07-12T00:45:14.379Z,67.4
2017-07-12T00:46:15.148Z,67.4
2017-07-12T00:47:15.877Z,68.3
2017-07-12T00:48:16.573Z,67.7
2017-07-12T00:49:17.305Z,68.1
2017-07-12T00:50:18.103Z,68.4
2017-07-12T00:51:18.859Z,66.9
2017-07-12T00:52:19.536Z,67.5
2017-07-12T00:53:20.264Z,66.5
2017-07-12T00:54:21.018Z,67.2
2017-07-12T00:55:21.778Z,68.5
2017-07-12T00:56:22.517Z,68.8
2017-07-12T00:57:23.230Z,69.8
2017-07-12T00:58:23.914Z,69.2
2017-07-12T00:59:24.751Z,68.4
2017-07-12T01:00:25.536Z,68.5
2017-07-12T01:01:26.273Z,67.7
2017-07-12T01:02:27.140Z,67.3
2017-07-12T01:03:35.909Z,67.4
2017-07-12T01:04:35.791Z,66.1
2017-07-12T01:05:36.542Z,68.9
2017-07-12T01:06:37.316Z,67.5
2017-07-12T01:07:38.423Z,67.5
2017-07-12T01:08:39.110Z,69.0
2017-07-12T01:09:39.877Z,68.9
2017-07-12T01:10:40.690Z,70.0
2017-07-12T01:11:41.393Z,69.1
2017-07-12T01:12:42.139Z,70.1
2017-07-12T01:13:43.062Z,69.3
2017-07-12T01:14:43.798Z,70.2
2017-07-12T01:15:44.961Z,69.8
2017-07-12T01:16:45.676Z,70.4
2017-07-12T01:17:46.434Z,71.4
2017-07-12T01:18:47.611Z,71.3
2017-07-12T01:19:48.330Z,70.6
2017-07-12T01:20:49.041Z,72.0
2017-07-12T01:21:50.032Z,72.4
2017-07-12T01:22:50.811Z,71.8
2017-07-12T01:23:51.657Z,71.4
2017-07-12T01:24:52.379Z,72.3
2017-07-12T01:25:53.095Z,72.1
2017-07-12T01:26:53.842Z,72.1
2017-07-12T01:27:54.608Z,72.8
2017-07-12T01:28:55.358Z,72.4
2017-07-12T01:29:56.203Z,73.3
2017-07-12T01:30:57.063Z,73.9
2017-07-12T01:31:57.803Z,74.1
2017-07-12T01:32:58.851Z,74.1
2017-07-12T01:33:59.548Z,75.1
2017-07-12T01:35:00.277Z,73.9
2017-07-12T01:36:01.427Z,73.5
2017-07-12T01:37:02.147Z,74.1
2017-07-12T01:38:03.212Z,73.9
2017-07-12T01:39:04.253Z,74.0
2017-07-12T01:40:05.072Z,73.4
2017-07-12T01:41:06.133Z,73.5
2017-07-12T01:42:07.183Z,73.2
2017-07-12T01:43:07.969Z,73.0
2017-07-12T01:44:08.999Z,72.8
2017-07-12T01:46:11.720Z,72.1
2017-07-12T01:47:12.440Z,71.3
2017-07-12T01:48:13.372Z,70.2
2017-07-12T01:49:14.107Z,70.6
2017-07-12T01:50:14.907Z,70.4
2017-07-12T01:51:15.669Z,71.6
2017-07-12T01:52:16.880Z,71.6
2017-07-12T01:53:17.591Z,70.7
2017-07-12T01:54:18.354Z,70.7
2017-07-12T01:55:19.170Z,70.2
2017-07-12T01:56:20.089Z,69.8
2017-07-12T01:57:20.835Z,70.2
2017-07-12T01:58:21.623Z,69.9
2017-07-12T01:59:22.353Z,70.5
2017-07-12T02:00:23.137Z,68.8
2017-07-12T02:01:23.980Z,69.5
2017-07-12T02:02:24.707Z,69.6
2017-07-12T02:03:25.702Z,70.3
2017-07-12T02:04:26.513Z,70.9
2017-07-12T02:05:27.380Z,70.4
2017-07-12T02:06:28.484Z,70.0
2017-07-12T02:07:29.367Z,70.1
2017-07-12T02:08:30.108Z,70.0
2017-07-12T02:09:30.845Z,70.1
2017-07-12T02:10:31.624Z,69.8
2017-07-12T02:11:32.399Z,70.0
2017-07-12T02:12:33.123Z,70.0
2017-07-12T02:13:33.812Z,69.6
2017-07-12T02:14:34.917Z,69.9
2017-07-12T02:15:36.075Z,69.5
2017-07-12T02:16:36.834Z,69.6
2017-07-12T02:17:37.684Z,69.6
2017-07-12T02:18:38.783Z,70.2
2017-07-12T02:19:39.845Z,69.3
2017-07-12T02:20:40.598Z,69.8
2017-07-12T02:21:41.405Z,69.9
2017-07-12T02:22:42.219Z,70.1
2017-07-12T02:23:43.237Z,69.8
2017-07-12T02:24:44.282Z,69.5
2017-07-12T02:25:45.012Z,69.4
2017-07-12T02:26:45.690Z,69.7
2017-07-12T02:27:46.437Z,70.4
2017-07-12T02:28:47.190Z,70.1
2017-07-12T02:29:48.174Z,69.7
2017-07-12T02:30:48.877Z,68.9
2017-07-12T02:31:49.634Z,69.1
2017-07-12T02:32:50.670Z,69.4
2017-07-12T02:33:51.369Z,69.6
2017-07-12T02:34:52.125Z,69.8
2017-07-12T02:35:52.971Z,70.2
2017-07-12T02:36:53.992Z,69.9
2017-07-12T02:37:54.821Z,69.8
2017-07-12T02:38:55.581Z,69.6
2017-07-12T02:39:56.292Z,69.7
2017-07-12T02:40:57.088Z,70.1
2017-07-12T02:41:58.191Z,69.4
2017-07-12T02:42:58.919Z,69.8
2017-07-12T02:43:59.653Z,70.1
2017-07-12T02:45:00.972Z,69.6
2017-07-12T02:46:01.791Z,69.6
2017-07-12T02:47:02.498Z,69.5
2017-07-12T02:48:03.184Z,69.0
2017-07-12T02:49:03.997Z,69.7
2017-07-12T02:50:04.779Z,70.2
2017-07-12T02:51:05.509Z,70.1
2017-07-12T02:52:06.256Z,70.3
2017-07-12T02:53:07.138Z,70.2
2017-07-12T02:54:07.853Z,70.9
2017-07-12T02:55:08.690Z,71.0
2017-07-12T02:56:09.370Z,70.3
2017-07-12T02:57:10.209Z,70.2
2017-07-12T02:58:11.274Z,70.3
2017-07-12T02:59:12.356Z,70.3
2017-07-12T03:00:13.517Z,69.8
2017-07-12T03:01:14.664Z,69.7
2017-07-12T03:02:15.408Z,69.8
2017-07-12T03:03:16.134Z,69.7
2017-07-12T03:04:17.330Z,69.7
2017-07-12T03:05:18.068Z,69.8
2017-07-12T03:06:18.809Z,70.2
2017-07-12T03:07:20.322Z,69.8
2017-07-12T03:08:21.051Z,69.3
2017-07-12T03:09:21.793Z,69.0
2017-07-12T03:10:22.605Z,69.1
2017-07-12T03:11:23.647Z,69.6
2017-07-12T03:12:24.697Z,69.8
2017-07-12T03:13:25.435Z,69.8
2017-07-12T03:14:26.198Z,70.0
2017-07-12T03:15:27.441Z,69.6
2017-07-12T03:16:28.123Z,69.8
2017-07-12T03:17:28.925Z,69.9
2017-07-12T03:18:29.643Z,69.6
2017-07-12T03:19:30.475Z,70.1
2017-07-12T03:20:31.200Z,70.4
2017-07-12T03:21:32.334Z,70.0
2017-07-12T03:22:33.046Z,70.6
2017-07-12T03:23:33.812Z,70.4
2017-07-12T03:24:34.564Z,71.1
2017-07-12T03:25:35.249Z,70.9
2017-07-12T03:26:36.281Z,70.1
2017-07-12T03:27:37.000Z,70.0
2017-07-12T03:28:37.744Z,70.1
2017-07-12T03:29:38.460Z,70.4
2017-07-12T03:30:39.695Z,70.7
2017-07-12T03:31:40.432Z,71.7
2017-07-12T03:32:41.213Z,71.4
2017-07-12T03:33:41.992Z,70.3
2017-07-12T03:34:42.677Z,70.1
2017-07-12T03:35:43.471Z,71.0
2017-07-12T03:36:44.210Z,71.4
2017-07-12T03:37:44.995Z,71.7
2017-07-12T03:38:46.015Z,71.5
2017-07-12T03:39:47.045Z,70.4
2017-07-12T03:42:03.247Z,71.5
2017-07-12T03:43:04.264Z,71.6
2017-07-12T03:44:04.991Z,68.9
2017-07-12T03:45:06.394Z,69.0
2017-07-12T03:46:07.551Z,69.7
2017-07-12T03:47:08.263Z,70.7
2017-07-12T03:48:09.304Z,70.6
2017-07-12T03:49:10.093Z,69.9
2017-07-12T03:50:10.828Z,70.2
2017-07-12T03:51:11.587Z,69.7
2017-07-12T03:52:12.385Z,69.8
2017-07-12T03:53:13.187Z,70.3
2017-07-12T03:54:13.886Z,71.4
2017-07-12T03:55:14.670Z,71.8
2017-07-12T03:56:15.460Z,70.9
2017-07-12T03:57:16.512Z,70.2
2017-07-12T03:58:17.241Z,70.9
2017-07-12T03:59:18.087Z,71.6
2017-07-12T04:00:19.120Z,71.6
2017-07-12T04:01:19.821Z,72.2
2017-07-12T04:02:20.539Z,72.3
2017-07-12T04:03:21.278Z,70.9
2017-07-12T04:04:22.046Z,70.8
2017-07-12T04:05:22.880Z,70.3
2017-07-12T04:06:23.826Z,71.4
2017-07-12T04:07:24.560Z,68.9
2017-07-12T04:08:25.706Z,68.1
2017-07-12T04:09:26.413Z,69.6
2017-07-12T04:10:27.685Z,70.4
2017-07-12T04:11:28.442Z,70.4
2017-07-12T04:12:29.314Z,69.1
2017-07-12T04:13:30.120Z,70.5
2017-07-12T04:14:30.896Z,72.0
2017-07-12T04:15:31.633Z,73.0
2017-07-12T04:16:32.378Z,72.6
2017-07-12T04:17:33.124Z,73.2
2017-07-12T04:18:33.877Z,71.5
2017-07-12T04:19:34.854Z,70.2
2017-07-12T04:21:51.140Z,69.0
2017-07-12T04:22:51.886Z,69.9
2017-07-12T04:23:52.718Z,69.7
2017-07-12T04:24:53.450Z,69.8
2017-07-12T04:25:54.709Z,69.8
2017-07-12T04:26:55.507Z,69.3
2017-07-12T04:27:56.343Z,68.3
2017-07-12T04:28:57.613Z,69.0
2017-07-12T04:29:58.433Z,69.8
2017-07-12T04:30:59.223Z,69.1
2017-07-12T04:32:00.119Z,69.9
2017-07-12T04:33:01.242Z,70.3
2017-07-12T04:34:01.955Z,68.4
2017-07-12T04:35:02.786Z,69.1
2017-07-12T04:36:03.523Z,69.3
2017-07-12T04:37:04.270Z,70.5
2017-07-12T04:38:05.026Z,70.8
2017-07-12T04:39:05.778Z,70.9
2017-07-12T04:40:06.536Z,69.9
2017-07-12T04:41:07.219Z,70.8
2017-07-12T04:42:07.984Z,71.7
2017-07-12T04:43:08.714Z,71.5
2017-07-12T04:44:09.517Z,70.8
2017-07-12T04:45:10.296Z,69.2
2017-07-12T04:46:11.540Z,69.6
2017-07-12T04:47:12.453Z,70.3
2017-07-12T04:48:14.142Z,70.4
2017-07-12T04:49:15.541Z,69.1
2017-07-12T04:50:16.319Z,69.7
2017-07-12T04:51:18.806Z,71.3
2017-07-12T04:52:21.151Z,70.8
2017-07-12T04:53:22.884Z,70.3
2017-07-12T04:54:24.663Z,70.9
2017-07-12T04:55:26.704Z,70.7
2017-07-12T04:56:28.813Z,71.4
2017-07-12T04:57:29.787Z,72.5
2017-07-12T04:58:30.499Z,72.6
2017-07-12T04:59:31.338Z,72.3
2017-07-12T05:00:32.166Z,73.0
2017-07-12T05:01:33.070Z,73.2
2017-07-12T05:02:34.141Z,72.8
2017-07-12T05:03:34.869Z,73.0
2017-07-12T05:04:35.990Z,73.2
2017-07-12T05:05:36.956Z,72.4
2017-07-12T05:06:38.101Z,72.4
2017-07-12T05:07:39.278Z,71.4
2017-07-12T05:08:40.363Z,70.5
2017-07-12T05:09:41.396Z,70.3
2017-07-12T05:10:42.172Z,70.8
2017-07-12T05:11:43.180Z,71.6
2017-07-12T05:12:43.932Z,70.1
2017-07-12T05:13:44.657Z,70.3
2017-07-12T05:14:45.890Z,70.6
2017-07-12T05:15:46.911Z,70.9
2017-07-12T05:16:47.692Z,71.9
2017-07-12T05:17:48.428Z,71.4
2017-07-12T05:18:49.238Z,70.3
2017-07-12T05:19:50.567Z,70.2
2017-07-12T05:20:52.112Z,70.6
2017-07-12T05:21:52.821Z,70.5
2017-07-12T05:22:53.602Z,70.4
2017-07-12T05:23:54.308Z,71.7
2017-07-12T05:24:56.336Z,71.2
2017-07-12T05:25:59.863Z,70.2
2017-07-12T05:27:01.540Z,70.3
2017-07-12T05:28:03.642Z,70.5
2017-07-12T05:29:06.566Z,70.3
2017-07-12T05:30:08.302Z,70.7
2017-07-12T05:31:09.678Z,71.8
2017-07-12T05:32:10.402Z,71.6
2017-07-12T05:33:11.134Z,72.1
2017-07-12T05:34:11.858Z,71.9
2017-07-12T05:35:12.644Z,70.7
2017-07-12T05:36:13.399Z,71.6
2017-07-12T05:37:14.472Z,70.8
2017-07-12T05:38:15.197Z,70.8
2017-07-12T05:39:15.925Z,70.3
2017-07-12T05:40:16.821Z,70.5
2017-07-12T05:41:17.549Z,70.5
2017-07-12T05:42:18.239Z,70.3
2017-07-12T05:43:18.999Z,70.3
2017-07-12T05:44:19.753Z,71.5
2017-07-12T05:45:20.778Z,72.4
2017-07-12T05:46:22.647Z,70.0
2017-07-12T05:47:24.769Z,70.0
2017-07-12T05:48:28.104Z,70.4
2017-07-12T05:49:34.358Z,70.3
2017-07-12T05:50:36.001Z,71.0
2017-07-12T05:51:37.407Z,70.8
2017-07-12T05:52:38.227Z,70.7
2017-07-12T05:53:38.973Z,70.7
2017-07-12T05:54:39.907Z,72.1
2017-07-12T05:55:41.063Z,71.9
2017-07-12T05:56:44.505Z,71.3
2017-07-12T05:57:45.273Z,70.6
2017-07-12T05:58:47.040Z,71.4
2017-07-12T05:59:48.226Z,71.5
2017-07-12T06:00:50.687Z,71.6
2017-07-12T06:01:58.711Z,71.9
2017-07-12T06:02:59.978Z,70.8
2017-07-12T06:04:00.799Z,71.7
2017-07-12T06:05:01.577Z,70.3
2017-07-12T06:06:03.158Z,70.7
2017-07-12T06:07:04.303Z,71.5
2017-07-12T06:08:17.096Z,70.1
2017-07-12T06:09:18.503Z,71.5
2017-07-12T06:10:19.312Z,70.3
2017-07-12T06:11:21.526Z,70.9
2017-07-12T06:12:23.364Z,70.7
2017-07-12T06:13:24.125Z,72.2
2017-07-12T06:14:25.787Z,72.4
2017-07-12T06:15:26.872Z,72.4
2017-07-12T06:16:27.991Z,72.3
2017-07-12T06:17:28.785Z,71.4
2017-07-12T06:18:30.943Z,71.0
2017-07-12T06:19:33.164Z,71.0
2017-07-12T06:20:34.139Z,72.1
2017-07-12T06:21:35.063Z,71.6
2017-07-12T06:22:35.782Z,71.0
2017-07-12T06:23:37.967Z,70.8
2017-07-12T06:24:40.139Z,71.6
2017-07-12T06:25:42.211Z,70.6
2017-07-12T06:26:43.646Z,72.1
2017-07-12T06:27:45.672Z,72.5
2017-07-12T06:28:46.379Z,73.5
2017-07-12T06:29:48.576Z,73.2
2017-07-12T06:30:50.439Z,71.4
2017-07-12T06:31:51.259Z,71.4
2017-07-12T06:32:52.108Z,72.1
2017-07-12T06:33:52.865Z,72.8
2017-07-12T06:34:56.369Z,73.6
2017-07-12T06:35:59.784Z,72.8
2017-07-12T06:37:04.784Z,72.6
2017-07-12T06:38:07.005Z,73.6
2017-07-12T06:39:08.010Z,72.6
2017-07-12T06:40:08.932Z,72.3
2017-07-12T06:41:10.056Z,73.5
2017-07-12T06:42:15.863Z,72.9
2017-07-12T06:43:23.076Z,73.9
2017-07-12T06:44:31.393Z,72.4
2017-07-12T06:45:33.060Z,72.4
2017-07-12T06:46:34.723Z,73.1
2017-07-12T06:47:37.035Z,72.7
2017-07-12T06:48:37.783Z,73.7
2017-07-12T06:50:46.563Z,73.2
2017-07-12T06:51:48.417Z,73.6
2017-07-12T06:52:49.150Z,74.2
2017-07-12T06:53:49.945Z,74.0
2017-07-12T06:54:50.769Z,72.9
2017-07-12T06:55:52.212Z,72.0
2017-07-12T06:56:56.026Z,72.5
2017-07-12T06:57:57.995Z,72.0
2017-07-12T06:58:58.765Z,72.8
2017-07-12T06:59:59.942Z,73.2
2017-07-12T07:01:00.919Z,72.3
2017-07-12T07:02:02.681Z,72.2
2017-07-12T07:03:03.507Z,72.7
2017-07-12T07:04:04.280Z,72.5
2017-07-12T07:06:20.715Z,71.0
2017-07-12T07:07:22.348Z,70.2
2017-07-12T07:08:23.079Z,70.4
2017-07-12T07:09:23.948Z,70.9
2017-07-12T07:10:24.760Z,71.2
2017-07-12T07:11:26.594Z,70.7
2017-07-12T07:12:27.367Z,70.0
2017-07-12T07:13:28.151Z,70.2
2017-07-12T07:14:28.891Z,70.7
2017-07-12T07:15:31.670Z,70.0
2017-07-12T07:16:32.977Z,70.0
2017-07-12T07:17:34.515Z,69.7
2017-07-12T07:18:35.280Z,69.4
2017-07-12T07:19:37.390Z,68.9
2017-07-12T07:20:39.337Z,68.5
2017-07-12T07:21:52.847Z,69.1
2017-07-12T07:22:54.135Z,68.2
2017-07-12T07:23:55.736Z,68.8
2017-07-12T07:24:56.978Z,67.0
2017-07-12T07:25:58.493Z,68.4
2017-07-12T07:26:59.319Z,68.9
2017-07-12T07:28:00.412Z,67.9
2017-07-12T07:29:01.613Z,68.5
2017-07-12T07:30:03.305Z,67.2
2017-07-12T07:31:04.958Z,67.1
2017-07-12T07:32:06.172Z,67.8
2017-07-12T07:33:07.718Z,69.1
2017-07-12T07:34:08.476Z,67.5
2017-07-12T07:35:09.231Z,67.6
2017-07-12T07:36:10.058Z,68.1
2017-07-12T07:37:10.815Z,68.1
2017-07-12T07:38:11.634Z,69.0
2017-07-12T07:39:12.593Z,68.5
2017-07-12T07:41:29.090Z,68.5
2017-07-12T07:42:30.179Z,67.1
2017-07-12T07:44:46.497Z,67.8
2017-07-12T07:45:52.075Z,66.6
2017-07-12T07:48:04.704Z,68.2
2017-07-12T07:49:05.425Z,67.5
2017-07-12T07:50:07.438Z,67.7
2017-07-12T07:51:11.095Z,67.5
2017-07-12T07:52:12.935Z,68.7
2017-07-12T07:53:14.014Z,69.3
2017-07-12T07:54:14.730Z,69.2
2017-07-12T07:55:15.537Z,69.9
2017-07-12T07:56:16.712Z,69.5
2017-07-12T07:57:18.745Z,68.6
2017-07-12T07:58:20.451Z,69.0
2017-07-12T07:59:21.870Z,69.8
2017-07-12T08:00:23.999Z,68.4
2017-07-12T08:01:25.226Z,70.2
2017-07-12T08:02:27.995Z,69.9
2017-07-12T08:03:31.894Z,69.6
2017-07-12T08:04:33.682Z,68.5
2017-07-12T08:05:34.511Z,68.8
2017-07-12T08:06:35.318Z,69.1
2017-07-12T08:07:36.626Z,69.2
2017-07-12T08:08:38.508Z,68.5
2017-07-12T08:09:39.526Z,69.0
2017-07-12T08:10:40.326Z,69.1
2017-07-12T08:11:41.254Z,69.5
2017-07-12T08:12:42.373Z,70.4
2017-07-12T08:13:43.083Z,70.0
2017-07-12T08:14:44.193Z,70.6
2017-07-12T08:15:44.955Z,69.8
2017-07-12T08:16:46.201Z,70.5
2017-07-12T08:17:47.178Z,70.3
2017-07-12T08:18:48.049Z,67.7
2017-07-12T08:19:49.065Z,68.1
2017-07-12T08:20:50.126Z,68.7
2017-07-12T08:21:51.117Z,67.9
2017-07-12T08:22:52.094Z,67.6
2017-07-12T08:23:53.263Z,68.0
2017-07-12T08:24:54.344Z,67.6
2017-07-12T08:25:55.033Z,68.6
2017-07-12T08:26:55.871Z,68.3
2017-07-12T08:27:57.050Z,67.9
2017-07-12T08:28:58.847Z,68.1
2017-07-12T08:29:59.963Z,67.3
2017-07-12T08:31:01.092Z,68.9
2017-07-12T08:32:02.084Z,66.1
2017-07-12T08:33:02.866Z,66.2
2017-07-12T08:34:03.805Z,65.3
2017-07-12T08:35:04.948Z,66.9
2017-07-12T08:36:05.718Z,66.3
2017-07-12T08:37:06.786Z,65.9
2017-07-12T08:38:07.487Z,65.0
2017-07-12T08:39:09.610Z,64.2
2017-07-12T08:40:10.707Z,63.9
2017-07-12T08:41:11.835Z,64.8
2017-07-12T08:42:12.939Z,64.6
2017-07-12T08:43:14.738Z,64.9
2017-07-12T08:44:19.298Z,66.8
2017-07-12T08:45:21.977Z,64.8
2017-07-12T08:47:39.545Z,63.8
2017-07-12T08:48:40.849Z,64.1
2017-07-12T08:49:41.890Z,64.7
2017-07-12T08:50:42.940Z,64.0
2017-07-12T08:51:44.966Z,65.3
2017-07-12T08:52:46.056Z,66.1
2017-07-12T08:53:46.777Z,66.1
2017-07-12T08:54:48.142Z,67.0
2017-07-12T08:55:49.018Z,65.2
2017-07-12T08:56:50.591Z,64.0
2017-07-12T08:57:51.381Z,63.4
2017-07-12T08:58:52.139Z,63.3
2017-07-12T08:59:53.316Z,63.5
2017-07-12T09:00:54.875Z,61.6
2017-07-12T09:01:56.049Z,62.2
2017-07-12T09:02:56.817Z,63.6
2017-07-12T09:03:58.672Z,64.1
2017-07-12T09:05:00.684Z,61.3
2017-07-12T09:06:05.492Z,63.1
2017-07-12T09:07:09.664Z,63.8
2017-07-12T09:08:12.238Z,63.2
2017-07-12T09:09:14.916Z,60.9
2017-07-12T09:10:16.356Z,61.3
2017-07-12T09:11:18.252Z,61.8
2017-07-12T09:12:20.348Z,62.5
2017-07-12T09:13:23.709Z,63.4
2017-07-12T09:14:26.395Z,63.7
2017-07-12T09:15:29.349Z,62.5
2017-07-12T09:16:31.618Z,60.9
2017-07-12T09:17:32.433Z,61.8
2017-07-12T09:18:33.226Z,61.4
2017-07-12T09:19:34.525Z,61.6
2017-07-12T09:20:35.318Z,61.9
2017-07-12T09:21:36.300Z,62.6
2017-07-12T09:22:37.386Z,63.3
2017-07-12T09:23:38.175Z,62.3
2017-07-12T09:33:47.956Z,61.3
2017-07-12T09:34:48.671Z,60.8
2017-07-12T09:35:49.768Z,61.2
2017-07-12T09:36:50.536Z,60.9
2017-07-12T09:37:51.268Z,59.9
2017-07-12T09:38:52.087Z,61.1
2017-07-12T09:39:52.840Z,60.2
2017-07-12T09:40:54.564Z,61.8
2017-07-12T09:41:57.981Z,62.1
2017-07-12T09:42:59.570Z,62.5
2017-07-12T09:44:01.370Z,62.5
2017-07-12T09:45:04.199Z,63.1
2017-07-12T09:46:09.696Z,63.8
2017-07-12T09:47:12.636Z,63.5
2017-07-12T09:48:14.666Z,64.2
2017-07-12T09:49:15.705Z,64.8
2017-07-12T09:50:16.794Z,64.1
2017-07-12T09:51:17.585Z,64.2
2017-07-12T09:52:18.444Z,65.7
2017-07-12T09:53:19.278Z,67.5
2017-07-12T09:54:20.135Z,69.0
2017-07-12T09:55:21.254Z,68.6
2017-07-12T09:56:22.375Z,67.2
2017-07-12T09:57:23.471Z,69.1
2017-07-12T09:59:39.888Z,70.3
2017-07-12T10:00:40.773Z,70.7
2017-07-12T10:01:46.549Z,72.6
2017-07-12T10:02:47.325Z,74.0
2017-07-12T10:05:03.782Z,73.0
2017-07-12T10:06:04.636Z,73.9
2017-07-12T10:07:05.973Z,74.4
2017-07-12T10:08:07.071Z,75.3
2017-07-12T10:09:08.262Z,74.8
2017-07-12T10:10:09.135Z,74.0
2017-07-12T10:11:09.921Z,75.2
2017-07-12T10:12:10.702Z,76.1
2017-07-12T10:13:21.784Z,76.3
2017-07-12T10:14:22.654Z,76.1
2017-07-12T10:15:23.434Z,74.3
2017-07-12T10:16:24.259Z,76.1
2017-07-12T10:17:25.009Z,75.7
2017-07-12T10:18:25.800Z,76.7
2017-07-12T10:20:42.216Z,75.0
2017-07-12T10:21:43.177Z,75.3
2017-07-12T10:22:44.005Z,75.1
2017-07-12T10:23:45.309Z,77.6
2017-07-12T10:24:46.108Z,78.1
2017-07-12T10:25:47.318Z,79.4
2017-07-12T10:26:48.616Z,80.9
2017-07-12T10:27:49.694Z,78.9
2017-07-12T10:28:50.384Z,75.9
2017-07-12T10:29:51.249Z,74.8
2017-07-12T10:30:52.947Z,76.7
2017-07-12T10:31:53.737Z,76.5
2017-07-12T10:32:54.592Z,75.3
2017-07-12T10:33:55.751Z,75.6
2017-07-12T10:34:56.925Z,77.7
2017-07-12T10:35:57.670Z,74.9
2017-07-12T10:36:58.461Z,75.3
2017-07-12T10:37:59.316Z,75.7
2017-07-12T10:39:00.439Z,77.1
2017-07-12T10:40:01.205Z,76.6
2017-07-12T10:41:01.918Z,78.0
2017-07-12T10:42:02.752Z,78.1
2017-07-12T10:43:03.780Z,75.9
2017-07-12T10:44:04.921Z,76.0
2017-07-12T10:45:05.970Z,75.4
2017-07-12T10:46:07.031Z,77.2
2017-07-12T10:47:08.209Z,79.4
2017-07-12T10:48:09.459Z,78.0
2017-07-12T10:49:10.669Z,77.1
2017-07-12T10:50:11.518Z,77.1
2017-07-12T10:51:13.003Z,77.3
2017-07-12T10:52:14.020Z,77.7
2017-07-12T10:53:15.448Z,76.4
2017-07-12T10:55:23.170Z,77.9
2017-07-12T10:56:23.930Z,78.8
2017-07-12T10:57:25.121Z,78.4
2017-07-12T10:58:26.183Z,78.7
2017-07-12T10:59:27.325Z,79.2
2017-07-12T11:00:28.491Z,79.0
2017-07-12T11:01:29.204Z,79.0
2017-07-12T11:02:37.249Z,79.3
2017-07-12T11:03:38.210Z,78.4
2017-07-12T11:04:39.050Z,79.2
2017-07-12T11:08:11.015Z,79.2
2017-07-12T11:09:11.759Z,79.7
2017-07-12T11:10:12.559Z,79.6
2017-07-12T11:11:13.370Z,79.7
2017-07-12T11:12:14.196Z,79.7
2017-07-12T11:13:21.229Z,79.1
2017-07-12T11:14:22.019Z,79.8
2017-07-12T11:15:23.142Z,78.0
2017-07-12T11:16:23.920Z,78.8
2017-07-12T11:17:29.625Z,79.7
2017-07-12T11:18:30.559Z,81.1
2017-07-12T11:19:31.994Z,81.3
2017-07-12T11:20:32.893Z,82.1
2017-07-12T11:21:33.771Z,81.8
2017-07-12T11:22:34.596Z,81.2
2017-07-12T11:23:35.389Z,81.3
2017-07-12T11:25:52.666Z,81.0
2017-07-12T11:26:54.633Z,81.3
2017-07-12T11:27:55.580Z,81.5
2017-07-12T11:28:56.313Z,81.7
2017-07-12T11:29:57.206Z,81.2
2017-07-12T11:30:58.307Z,81.3
2017-07-12T11:31:59.136Z,79.4
2017-07-12T11:32:59.890Z,80.6
2017-07-12T11:34:00.651Z,81.2
2017-07-12T11:35:01.407Z,80.3
2017-07-12T11:36:02.385Z,80.5
2017-07-12T11:37:03.194Z,82.0
2017-07-12T11:38:05.019Z,82.3
2017-07-12T11:39:05.718Z,83.0
2017-07-12T11:41:23.224Z,82.8
2017-07-12T11:42:23.990Z,83.2
2017-07-12T11:43:29.730Z,83.8
2017-07-12T11:44:30.511Z,83.1
2017-07-12T11:45:31.497Z,83.0
2017-07-12T11:46:32.380Z,83.2
2017-07-12T11:47:33.252Z,83.0
2017-07-12T11:48:34.047Z,83.4
2017-07-12T11:49:34.815Z,81.8
2017-07-12T11:50:35.578Z,79.8
2017-07-12T11:51:36.325Z,82.9
2017-07-12T11:52:37.128Z,83.1
2017-07-12T11:53:37.875Z,83.2
2017-07-12T11:54:38.699Z,83.0
2017-07-12T11:55:39.660Z,83.0
2017-07-12T11:56:40.940Z,84.2
2017-07-12T11:57:42.090Z,84.1
2017-07-12T11:58:42.929Z,85.0
2017-07-12T11:59:43.769Z,82.8
2017-07-12T12:00:44.593Z,82.5
2017-07-12T12:01:45.447Z,83.5
2017-07-12T12:02:46.223Z,83.6
2017-07-12T12:03:47.030Z,83.7
2017-07-12T12:04:47.748Z,83.7
2017-07-12T12:05:48.516Z,82.6
2017-07-12T12:06:49.270Z,82.9
2017-07-12T12:07:50.087Z,82.8
2017-07-12T12:08:50.811Z,81.8
2017-07-12T12:09:51.599Z,82.2
2017-07-12T12:10:52.412Z,81.9
2017-07-12T12:11:57.280Z,81.6
2017-07-12T12:15:30.323Z,84.3
2017-07-12T12:16:31.063Z,86.1
2017-07-12T12:17:31.816Z,85.2
2017-07-12T12:18:32.582Z,84.3
2017-07-12T12:19:33.375Z,85.1
2017-07-12T12:20:34.880Z,85.9
2017-07-12T12:21:35.910Z,85.7
2017-07-12T12:22:39.648Z,85.0
2017-07-12T12:23:41.467Z,87.3
2017-07-12T12:24:42.211Z,85.9
2017-07-12T12:25:43.329Z,85.9
2017-07-12T12:26:49.405Z,86.7
2017-07-12T12:27:50.178Z,86.6
2017-07-12T12:28:50.960Z,85.8
2017-07-12T12:29:51.841Z,85.1
2017-07-12T12:30:52.623Z,86.1
2017-07-12T12:31:53.583Z,86.0
2017-07-12T12:32:54.401Z,85.4
2017-07-12T12:33:55.376Z,83.3
2017-07-12T12:34:56.173Z,84.0
2017-07-12T12:35:57.211Z,84.3
2017-07-12T12:37:03.985Z,84.6
2017-07-12T12:38:04.711Z,85.4
2017-07-12T12:39:05.468Z,85.9
2017-07-12T12:40:06.257Z,84.2
2017-07-12T12:41:07.121Z,85.0
2017-07-12T12:42:07.959Z,84.5
2017-07-12T12:43:08.817Z,83.9
2017-07-12T12:44:19.822Z,83.5
2017-07-12T12:45:20.718Z,85.4
2017-07-12T12:46:22.878Z,85.4
2017-07-12T12:47:23.620Z,84.7
2017-07-12T12:48:24.378Z,84.3
2017-07-12T12:49:35.500Z,84.2
2017-07-12T12:50:37.008Z,84.9
2017-07-12T12:51:38.047Z,85.2
2017-07-12T12:52:38.801Z,85.5
2017-07-12T12:53:40.134Z,85.4
2017-07-12T12:54:47.147Z,84.7
2017-07-12T12:55:47.843Z,84.9
2017-07-12T12:56:48.908Z,83.9
2017-07-12T12:57:49.629Z,83.8
2017-07-12T12:58:50.554Z,84.0
2017-07-12T12:59:57.564Z,83.8
2017-07-12T13:00:58.519Z,83.5
2017-07-12T13:03:15.196Z,84.0
2017-07-12T13:04:16.495Z,84.6
2017-07-12T13:05:17.579Z,83.0
2017-07-12T13:06:18.791Z,84.0
2017-07-12T13:07:19.775Z,83.8
2017-07-12T13:08:21.055Z,79.5
2017-07-12T13:09:21.827Z,81.9
2017-07-12T13:10:22.695Z,81.9
2017-07-12T13:11:23.450Z,80.3
2017-07-12T13:12:24.594Z,81.2
2017-07-12T13:13:25.719Z,81.0
2017-07-12T13:14:26.509Z,81.0
2017-07-12T13:15:27.560Z,81.3
2017-07-12T13:16:28.771Z,80.7
2017-07-12T13:17:29.566Z,79.8
2017-07-12T13:18:30.398Z,80.7
2017-07-12T13:19:31.441Z,81.9
2017-07-12T13:20:32.187Z,83.0
2017-07-12T13:21:33.075Z,83.1
2017-07-12T13:22:34.008Z,80.9
2017-07-12T13:23:34.839Z,80.7
2017-07-12T13:24:35.681Z,80.6
2017-07-12T13:25:36.737Z,81.6
2017-07-12T13:26:37.504Z,81.0
2017-07-12T13:27:38.577Z,82.0
2017-07-12T13:28:39.345Z,82.6
2017-07-12T13:29:40.487Z,83.3
2017-07-12T13:30:41.749Z,83.5
2017-07-12T13:31:42.439Z,83.8
2017-07-12T13:32:43.910Z,84.2
2017-07-12T13:33:44.664Z,83.3
2017-07-12T13:34:45.363Z,83.4
2017-07-12T13:35:46.136Z,83.3
2017-07-12T13:36:47.182Z,83.5
2017-07-12T13:37:48.308Z,82.6
2017-07-12T13:38:49.360Z,82.2
2017-07-12T13:39:50.481Z,81.8
2017-07-12T13:40:51.646Z,82.0
2017-07-12T13:41:52.778Z,82.8
2017-07-12T13:42:53.791Z,83.2
2017-07-12T13:43:54.767Z,82.8
2017-07-12T13:44:56.630Z,83.8
2017-07-12T13:45:58.047Z,83.8
2017-07-12T13:46:58.972Z,83.2
2017-07-12T13:48:00.021Z,82.7
2017-07-12T13:49:01.074Z,82.3
2017-07-12T13:50:02.197Z,81.9
2017-07-12T13:51:02.918Z,80.6
2017-07-12T13:52:03.712Z,81.1
2017-07-12T13:53:04.858Z,81.0
2017-07-12T13:54:05.583Z,81.2
2017-07-12T13:55:06.714Z,82.1
2017-07-12T13:56:07.914Z,81.1
2017-07-12T13:57:08.645Z,82.0
2017-07-12T13:58:09.406Z,82.4
2017-07-12T13:59:10.292Z,82.6
2017-07-12T14:00:11.705Z,81.3
2017-07-12T14:01:18.938Z,81.9
2017-07-12T14:02:19.680Z,82.0
2017-07-12T14:03:20.479Z,82.2
2017-07-12T14:04:21.793Z,81.6
2017-07-12T14:05:22.876Z,80.3
2017-07-12T14:06:23.637Z,79.9
2017-07-12T14:07:24.758Z,79.7
2017-07-12T14:08:25.527Z,78.9
2017-07-12T14:09:26.717Z,80.5